Aérodrome :
LOGIN :

S'inscrire | Disclaimer

   EN    FR    IT 

 










Légende :    VFR   VFR Marginal   IFR   IFR Intensif   IFR Très Intensif
Visi : 
Plafond : 
>= 8 km
>= 3000ft
5 à 8 km
1000 à 3000 ft
1500m à 5 km
500 à 1000 ft
800 à 1500m
200 à 500 ft
< 800m
< 200 ft
Symboles :   Orages  Brouillard  Fortes neiges  Fortes précipitations  Vent > 20 kt
SIGMETs :   Divers  Orages  Givrage  Turbulence  Onde Orograph.  Cendres Volcan.






- Altitude de l'aérodrome : 82 ft
- Code IATA : AAR


EKAH - Aarhus Tirstrup

DERNIER METAR :
  • 151220Z AUTO 08017G27KT 9999NDV BKN017/// BKN059/// 08/05 Q1014

METARs EXPIRÉS :
  • 151150Z AUTO 08018KT 9999NDV BKN016/// BKN056/// 08/05 Q1014
  • 151120Z AUTO 08016KT 9999NDV OVC016/// 08/05 Q1014
  • 151050Z AUTO 09016KT 9999NDV BKN017/// 08/05 Q1015
  • 151020Z AUTO 09015KT 9999NDV OVC018/// 08/05 Q1015
  • 150950Z AUTO 09016KT 9999NDV BKN019/// 08/05 Q1015

TAF TAF EKAH
Valide du 15 à 12h jusqu'au 16 à 12h UTC


151113Z 1512/1612 11018G28KT 9999 BKN018
TEMPO 1512/1519 08015KT BKN012
BECMG 1519/1522 08012KT BKN012
BECMG 1522/1524 BKN008
TEMPO 1600/1612 2000 -RADZ BR BKN004



MET'MAP, la Météo Aéronautique d'un coup d'oeil ! - Copyright ORBIFLY Décembre 2007 - Disclaimer

ORBIFLY MET'MAP TEAM :

Programmation & Développement : Alexandra Zaïnal
Conception & Développement : Baudouin d'Aumeries
Co-Programmation & Développement : Marc-Olivier Méhu
Soutien technique & logistique : Manuel Goepfert

Contact : metmap@orbifly.com




SOURCES & CREDITS :

   NOAA